Time,TemperatureF,DewpointF,PressureIn,WindDirection,WindDirectionDegrees,WindSpeedMPH,WindSpeedGustMPH,Humidity,HourlyPrecipIn,Conditions,Clouds,dailyrainin,SolarRadiationWatts/m^2,SoftwareType,DateUTC
2013-12-02 00:00:00,29.5,25.8,29.84,SE,125,0.0,0.0,86,0.00,,,0.00,0,Wunderground v.1.15,2013-12-02 06:00:00,
2013-12-02 00:05:00,29.6,26.2,29.84,SE,125,0.0,0.0,87,0.00,,,0.00,0,Wunderground v.1.15,2013-12-02 06:05:00,
2013-12-02 00:15:00,30.0,26.6,29.83,SE,126,0.0,0.0,87,0.00,,,0.00,0,Wunderground v.1.15,2013-12-02 06:15:00,
2013-12-02 00:20:00,30.1,26.7,29.83,SE,126,0.0,0.0,87,0.00,,,0.00,0,Wunderground v.1.15,2013-12-02 06:20:00,
2013-12-02 00:25:00,30.2,27.1,29.83,SE,125,0.0,0.0,88,0.00,,,0.00,0,Wunderground v.1.15,2013-12-02 06:25:00,
2013-12-02 00:35:00,30.3,27.2,29.82,SE,126,0.0,0.0,88,0.00,,,0.00,0,Wunderground v.1.15,2013-12-02 06:35:00,
2013-12-02 00:45:00,30.4,27.3,29.82,SE,126,0.0,0.0,88,0.00,,,0.00,0,Wunderground v.1.15,2013-12-02 06:45:00,
2013-12-02 00:55:00,30.4,27.3,29.82,SE,126,0.0,0.0,88,0.00,,,0.00,0,Wunderground v.1.15,2013-12-02 06:55:00,
2013-12-02 01:00:00,30.3,27.2,29.82,SE,126,0.0,0.0,88,0.00,,,0.00,0,Wunderground v.1.15,2013-12-02 07:00:00,
2013-12-02 01:05:00,30.0,26.9,29.82,SE,126,0.0,0.0,88,0.00,,,0.00,0,Wunderground v.1.15,2013-12-02 07:05:00,
2013-12-02 01:15:00,29.7,26.6,29.81,SE,126,0.0,0.0,88,0.00,,,0.00,0,Wunderground v.1.15,2013-12-02 07:15:00,
2013-12-02 01:25:00,29.7,26.6,29.81,SE,126,0.0,0.0,88,0.00,,,0.00,0,Wunderground v.1.15,2013-12-02 07:25:00,
2013-12-02 01:30:00,29.8,26.7,29.81,SE,126,0.0,0.0,88,0.00,,,0.00,0,Wunderground v.1.15,2013-12-02 07:30:00,
2013-12-02 01:35:00,30.1,27.3,29.81,SE,125,0.0,0.0,89,0.00,,,0.00,0,Wunderground v.1.15,2013-12-02 07:35:00,
2013-12-02 01:45:00,30.6,27.7,29.80,SE,125,0.0,0.0,89,0.00,,,0.00,0,Wunderground v.1.15,2013-12-02 07:45:00,
2013-12-02 01:55:00,31.0,28.1,29.80,SE,125,0.0,0.0,89,0.00,,,0.00,0,Wunderground v.1.15,2013-12-02 07:55:00,
2013-12-02 02:05:00,31.2,28.3,29.81,SE,126,0.0,0.0,89,0.00,,,0.00,0,Wunderground v.1.15,2013-12-02 08:05:00,
2013-12-02 02:15:00,31.4,28.5,29.80,SE,125,0.0,0.0,89,0.00,,,0.00,0,Wunderground v.1.15,2013-12-02 08:15:00,
2013-12-02 02:25:00,31.7,29.1,29.80,SE,126,0.0,0.0,90,0.00,,,0.00,0,Wunderground v.1.15,2013-12-02 08:25:00,
2013-12-02 02:30:00,31.9,29.3,29.80,SE,126,0.0,0.0,90,0.00,,,0.00,0,Wunderground v.1.15,2013-12-02 08:30:00,
2013-12-02 02:40:00,32.4,29.8,29.80,SE,126,0.0,0.0,90,0.00,,,0.00,0,Wunderground v.1.15,2013-12-02 08:40:00,
2013-12-02 02:45:00,32.6,30.0,29.80,SE,125,0.0,0.0,90,0.00,,,0.00,0,Wunderground v.1.15,2013-12-02 08:45:00,
2013-12-02 02:50:00,32.8,30.2,29.80,SE,125,0.0,0.0,90,0.00,,,0.00,0,Wunderground v.1.15,2013-12-02 08:50:00,
2013-12-02 03:00:00,33.2,30.6,29.80,SE,125,0.0,0.0,90,0.00,,,0.00,0,Wunderground v.1.15,2013-12-02 09:00:00,
2013-12-02 03:05:00,33.5,30.9,29.80,SE,126,0.0,0.0,90,0.00,,,0.00,0,Wunderground v.1.15,2013-12-02 09:05:00,
2013-12-02 03:15:00,33.8,31.5,29.79,SE,125,0.0,0.0,91,0.00,,,0.00,0,Wunderground v.1.15,2013-12-02 09:15:00,
2013-12-02 03:20:00,34.0,31.6,29.78,SE,126,0.0,0.0,91,0.00,,,0.00,0,Wunderground v.1.15,2013-12-02 09:20:00,
2013-12-02 03:30:00,34.3,31.7,29.78,SE,125,0.0,0.0,90,0.00,,,0.00,0,Wunderground v.1.15,2013-12-02 09:30:00,
2013-12-02 03:40:00,34.4,32.0,29.78,SE,126,0.0,0.0,91,0.00,,,0.00,0,Wunderground v.1.15,2013-12-02 09:40:00,
2013-12-02 03:50:00,34.4,32.0,29.78,SE,125,0.0,0.0,91,0.00,,,0.00,0,Wunderground v.1.15,2013-12-02 09:50:00,
2013-12-02 04:00:00,34.6,32.2,29.77,SE,126,0.0,0.0,91,0.00,,,0.00,0,Wunderground v.1.15,2013-12-02 10:00:00,
2013-12-02 04:05:00,34.7,32.3,29.77,SE,126,0.0,0.0,91,0.00,,,0.00,0,Wunderground v.1.15,2013-12-02 10:05:00,
2013-12-02 04:15:00,34.8,32.4,29.76,SE,126,0.0,0.0,91,0.00,,,0.00,0,Wunderground v.1.15,2013-12-02 10:15:00,
2013-12-02 04:25:00,34.9,32.5,29.76,SE,126,0.0,0.0,91,0.00,,,0.00,0,Wunderground v.1.15,2013-12-02 10:25:00,
2013-12-02 04:35:00,35.0,32.6,29.76,SE,125,0.0,0.0,91,0.00,,,0.00,0,Wunderground v.1.15,2013-12-02 10:35:00,
2013-12-02 04:45:00,35.1,32.7,29.75,SE,125,0.0,0.0,91,0.00,,,0.00,0,Wunderground v.1.15,2013-12-02 10:45:00,
2013-12-02 04:50:00,35.1,32.7,29.75,SE,126,0.0,0.0,91,0.00,,,0.00,0,Wunderground v.1.15,2013-12-02 10:50:00,
2013-12-02 05:00:00,35.3,32.9,29.75,SE,126,0.0,0.0,91,0.00,,,0.00,0,Wunderground v.1.15,2013-12-02 11:00:00,
2013-12-02 05:05:00,35.5,33.1,29.74,SE,125,0.0,0.0,91,0.00,,,0.00,0,Wunderground v.1.15,2013-12-02 11:05:00,
2013-12-02 05:15:00,35.5,32.9,29.74,SE,126,0.0,0.0,90,0.00,,,0.00,0,Wunderground v.1.15,2013-12-02 11:15:00,
2013-12-02 05:25:00,35.5,32.9,29.73,SE,125,0.0,0.0,90,0.00,,,0.00,0,Wunderground v.1.15,2013-12-02 11:25:00,
2013-12-02 05:30:00,35.5,32.9,29.73,SE,126,0.0,0.0,90,0.00,,,0.00,0,Wunderground v.1.15,2013-12-02 11:30:00,
2013-12-02 05:35:00,35.5,32.9,29.73,SE,126,0.0,0.0,90,0.00,,,0.00,0,Wunderground v.1.15,2013-12-02 11:35:00,
2013-12-02 05:40:00,35.5,32.9,29.72,SE,126,0.0,0.0,90,0.00,,,0.00,0,Wunderground v.1.15,2013-12-02 11:40:00,
2013-12-02 05:50:00,35.6,33.0,29.72,SE,126,0.0,0.0,90,0.00,,,0.00,0,Wunderground v.1.15,2013-12-02 11:50:00,
2013-12-02 06:00:00,35.7,33.1,29.72,SE,126,0.0,0.0,90,0.00,,,0.00,0,Wunderground v.1.15,2013-12-02 12:00:00,
2013-12-02 06:05:00,35.8,33.2,29.73,SE,125,0.0,0.0,90,0.00,,,0.00,0,Wunderground v.1.15,2013-12-02 12:05:00,
2013-12-02 06:15:00,36.1,33.5,29.73,SE,126,0.0,0.0,90,0.00,,,0.00,0,Wunderground v.1.15,2013-12-02 12:15:00,
2013-12-02 06:20:00,36.3,33.6,29.73,SE,125,0.0,0.0,90,0.00,,,0.00,0,Wunderground v.1.15,2013-12-02 12:20:00,
2013-12-02 06:30:00,36.5,33.8,29.73,SE,126,0.0,0.0,90,0.00,,,0.00,0,Wunderground v.1.15,2013-12-02 12:30:00,
2013-12-02 06:35:00,36.6,33.9,29.73,SE,126,0.0,0.0,90,0.00,,,0.00,0,Wunderground v.1.15,2013-12-02 12:35:00,
2013-12-02 06:40:00,36.8,34.1,29.72,SE,126,0.0,0.0,90,0.00,,,0.00,0,Wunderground v.1.15,2013-12-02 12:40:00,
2013-12-02 06:50:00,37.0,34.3,29.72,SE,126,0.0,0.0,90,0.00,,,0.00,0,Wunderground v.1.15,2013-12-02 12:50:00,
2013-12-02 07:00:00,37.1,34.2,29.72,SE,126,0.0,0.0,89,0.00,,,0.00,0,Wunderground v.1.15,2013-12-02 13:00:00,
2013-12-02 07:05:00,37.2,34.3,29.71,SE,128,0.0,0.0,89,0.00,,,0.00,0,Wunderground v.1.15,2013-12-02 13:05:00,
2013-12-02 07:15:00,37.4,34.2,29.71,South,188,1.0,1.0,88,0.00,,,0.00,0,Wunderground v.1.15,2013-12-02 13:15:00,
2013-12-02 07:25:00,37.8,34.3,29.70,SW,220,2.0,2.0,87,0.00,,,0.00,0,Wunderground v.1.15,2013-12-02 13:25:00,
2013-12-02 07:30:00,38.0,34.5,29.71,SW,220,1.0,1.0,87,0.00,,,0.00,0,Wunderground v.1.15,2013-12-02 13:30:00,
2013-12-02 07:40:00,38.1,34.0,29.70,SW,221,0.0,0.0,85,0.00,,,0.00,7,Wunderground v.1.15,2013-12-02 13:40:00,
2013-12-02 07:45:00,38.2,34.1,29.71,SW,221,0.0,0.0,85,0.00,,,0.00,12,Wunderground v.1.15,2013-12-02 13:45:00,
2013-12-02 07:55:00,38.2,33.8,29.71,SW,221,1.0,1.0,84,0.00,,,0.00,23,Wunderground v.1.15,2013-12-02 13:55:00,
2013-12-02 08:05:00,38.1,33.4,29.70,SW,221,0.0,3.0,83,0.00,,,0.00,28,Wunderground v.1.15,2013-12-02 14:05:00,
2013-12-02 08:10:00,38.1,33.4,29.70,SW,221,0.0,0.0,83,0.00,,,0.00,53,Wunderground v.1.15,2013-12-02 14:10:00,
2013-12-02 08:20:00,38.7,33.7,29.70,SW,221,0.0,0.0,82,0.00,,,0.00,91,Wunderground v.1.15,2013-12-02 14:20:00,
2013-12-02 08:30:00,39.9,34.2,29.70,SW,221,0.0,0.0,80,0.00,,,0.00,118,Wunderground v.1.15,2013-12-02 14:30:00,
2013-12-02 08:35:00,40.6,34.6,29.69,SW,221,0.0,0.0,79,0.00,,,0.00,134,Wunderground v.1.15,2013-12-02 14:35:00,
2013-12-02 08:40:00,41.1,34.4,29.69,SW,221,0.0,0.0,77,0.00,,,0.00,155,Wunderground v.1.15,2013-12-02 14:40:00,
2013-12-02 08:45:00,41.4,34.7,29.68,SW,221,0.0,0.0,77,0.00,,,0.00,178,Wunderground v.1.15,2013-12-02 14:45:00,
2013-12-02 08:55:00,42.2,35.2,29.69,SW,228,2.0,3.0,76,0.00,,,0.00,197,Wunderground v.1.15,2013-12-02 14:55:00,
2013-12-02 09:05:00,43.0,35.3,29.69,SW,227,1.0,2.0,74,0.00,,,0.00,192,Wunderground v.1.15,2013-12-02 15:05:00,
2013-12-02 09:15:00,44.1,36.0,29.69,SW,228,0.0,1.0,73,0.00,,,0.00,258,Wunderground v.1.15,2013-12-02 15:15:00,
2013-12-02 09:25:00,45.4,36.2,29.69,WNW,293,2.0,4.0,70,0.00,,,0.00,269,Wunderground v.1.15,2013-12-02 15:25:00,
2013-12-02 09:35:00,46.9,36.1,29.68,WSW,241,3.0,4.0,66,0.00,,,0.00,295,Wunderground v.1.15,2013-12-02 15:35:00,
2013-12-02 09:40:00,47.3,36.1,29.68,West,274,5.0,5.0,65,0.00,,,0.00,308,Wunderground v.1.15,2013-12-02 15:40:00,
2013-12-02 09:50:00,48.0,36.4,29.67,SW,233,4.0,4.0,64,0.00,,,0.00,339,Wunderground v.1.15,2013-12-02 15:50:00,
2013-12-02 09:55:00,48.6,36.6,29.67,SW,226,4.0,4.0,63,0.00,,,0.00,350,Wunderground v.1.15,2013-12-02 15:55:00,
2013-12-02 10:00:00,49.2,36.7,29.68,West,273,3.0,5.0,62,0.00,,,0.00,322,Wunderground v.1.15,2013-12-02 16:00:00,
2013-12-02 10:05:00,49.7,36.4,29.68,SW,217,4.0,5.0,60,0.00,,,0.00,313,Wunderground v.1.15,2013-12-02 16:05:00,
2013-12-02 10:15:00,50.7,36.9,29.68,WSW,248,3.0,3.0,59,0.00,,,0.00,401,Wunderground v.1.15,2013-12-02 16:15:00,
2013-12-02 10:20:00,51.6,37.3,29.68,WNW,294,4.0,4.0,58,0.00,,,0.00,420,Wunderground v.1.15,2013-12-02 16:20:00,
2013-12-02 10:30:00,53.3,37.5,29.68,West,280,3.0,3.0,55,0.00,,,0.00,338,Wunderground v.1.15,2013-12-02 16:30:00,
2013-12-02 10:35:00,53.0,36.8,29.68,WSW,251,4.0,4.0,54,0.00,,,0.00,446,Wunderground v.1.15,2013-12-02 16:35:00,
2013-12-02 10:45:00,53.3,36.6,29.68,WSW,245,4.0,5.0,53,0.00,,,0.00,367,Wunderground v.1.15,2013-12-02 16:45:00,
2013-12-02 10:50:00,53.5,36.8,29.68,WSW,246,4.0,4.0,53,0.00,,,0.00,404,Wunderground v.1.15,2013-12-02 16:50:00,
2013-12-02 10:55:00,53.8,37.1,29.68,WSW,254,3.0,10.0,53,0.00,,,0.00,336,Wunderground v.1.15,2013-12-02 16:55:00,
2013-12-02 11:05:00,53.6,36.4,29.67,WSW,240,5.0,7.0,52,0.00,,,0.00,190,Wunderground v.1.15,2013-12-02 17:05:00,
2013-12-02 11:15:00,53.7,37.0,29.67,SSW,205,3.0,5.0,53,0.00,,,0.00,489,Wunderground v.1.15,2013-12-02 17:15:00,
2013-12-02 11:20:00,54.3,37.0,29.66,SW,234,3.0,3.0,52,0.00,,,0.00,504,Wunderground v.1.15,2013-12-02 17:20:00,
2013-12-02 11:25:00,55.4,37.6,29.66,SSW,202,2.0,3.0,51,0.00,,,0.00,504,Wunderground v.1.15,2013-12-02 17:25:00,
2013-12-02 11:30:00,56.1,37.7,29.65,SW,221,2.0,2.0,50,0.00,,,0.00,450,Wunderground v.1.15,2013-12-02 17:30:00,
2013-12-02 11:35:00,56.2,37.8,29.65,SW,227,2.0,3.0,50,0.00,,,0.00,320,Wunderground v.1.15,2013-12-02 17:35:00,
2013-12-02 11:45:00,56.1,37.2,29.64,SW,219,2.0,2.0,49,0.00,,,0.00,206,Wunderground v.1.15,2013-12-02 17:45:00,
2013-12-02 11:55:00,55.1,37.3,29.64,SW,223,2.0,7.0,51,0.00,,,0.00,278,Wunderground v.1.15,2013-12-02 17:55:00,
2013-12-02 12:00:00,55.3,36.5,29.64,SSW,210,4.0,4.0,49,0.00,,,0.00,445,Wunderground v.1.15,2013-12-02 18:00:00,
2013-12-02 12:05:00,55.9,36.5,29.64,WSW,254,5.0,9.0,48,0.00,,,0.00,522,Wunderground v.1.15,2013-12-02 18:05:00,
2013-12-02 12:15:00,56.2,36.8,29.63,WNW,300,6.0,6.0,48,0.00,,,0.00,348,Wunderground v.1.15,2013-12-02 18:15:00,
2013-12-02 12:20:00,56.1,37.2,29.63,WSW,249,5.0,5.0,49,0.00,,,0.00,318,Wunderground v.1.15,2013-12-02 18:20:00,
2013-12-02 12:30:00,56.6,37.1,29.62,WNW,302,4.0,4.0,48,0.00,,,0.00,301,Wunderground v.1.15,2013-12-02 18:30:00,
2013-12-02 12:40:00,58.7,37.4,29.62,West,273,3.0,5.0,45,0.00,,,0.00,387,Wunderground v.1.15,2013-12-02 18:40:00,
2013-12-02 12:45:00,58.9,37.0,29.61,NNW,344,4.0,5.0,44,0.00,,,0.00,381,Wunderground v.1.15,2013-12-02 18:45:00,
2013-12-02 12:55:00,58.8,36.3,29.61,WNW,298,4.0,6.0,43,0.00,,,0.00,285,Wunderground v.1.15,2013-12-02 18:55:00,
2013-12-02 13:00:00,59.0,36.5,29.61,West,268,4.0,4.0,43,0.00,,,0.00,403,Wunderground v.1.15,2013-12-02 19:00:00,
2013-12-02 13:05:00,59.0,36.5,29.61,WSW,240,3.0,4.0,43,0.00,,,0.00,545,Wunderground v.1.15,2013-12-02 19:05:00,
2013-12-02 13:15:00,60.5,36.7,29.60,WSW,238,4.0,5.0,41,0.00,,,0.00,445,Wunderground v.1.15,2013-12-02 19:15:00,
2013-12-02 13:25:00,60.1,36.3,29.59,West,271,5.0,6.0,41,0.00,,,0.00,501,Wunderground v.1.15,2013-12-02 19:25:00,
2013-12-02 13:30:00,60.6,36.8,29.59,WSW,238,4.0,4.0,41,0.00,,,0.00,408,Wunderground v.1.15,2013-12-02 19:30:00,
2013-12-02 13:35:00,61.3,36.1,29.59,WSW,245,3.0,5.0,39,0.00,,,0.00,563,Wunderground v.1.15,2013-12-02 19:35:00,
2013-12-02 13:40:00,61.8,36.6,29.59,WSW,242,2.0,4.0,39,0.00,,,0.00,548,Wunderground v.1.15,2013-12-02 19:40:00,
2013-12-02 13:45:00,62.5,36.5,29.58,WSW,245,3.0,4.0,38,0.00,,,0.00,510,Wunderground v.1.15,2013-12-02 19:45:00,
2013-12-02 13:55:00,62.5,36.5,29.58,WSW,250,3.0,5.0,38,0.00,,,0.00,411,Wunderground v.1.15,2013-12-02 19:55:00,
2013-12-02 14:05:00,61.9,37.3,29.57,WSW,246,3.0,4.0,40,0.00,,,0.00,330,Wunderground v.1.15,2013-12-02 20:05:00,
2013-12-02 14:15:00,62.2,37.6,29.57,West,271,3.0,3.0,40,0.00,,,0.00,401,Wunderground v.1.15,2013-12-02 20:15:00,
2013-12-02 14:20:00,62.5,37.2,29.57,WSW,257,3.0,4.0,39,0.00,,,0.00,401,Wunderground v.1.15,2013-12-02 20:20:00,
2013-12-02 14:25:00,62.9,37.5,29.57,West,277,3.0,4.0,39,0.00,,,0.00,422,Wunderground v.1.15,2013-12-02 20:25:00,
2013-12-02 14:35:00,63.9,37.1,29.56,WSW,250,2.0,3.0,37,0.00,,,0.00,353,Wunderground v.1.15,2013-12-02 20:35:00,
2013-12-02 14:45:00,64.1,36.6,29.56,WSW,257,2.0,5.0,36,0.00,,,0.00,338,Wunderground v.1.15,2013-12-02 20:45:00,
2013-12-02 14:55:00,63.6,36.8,29.56,West,264,3.0,4.0,37,0.00,,,0.00,211,Wunderground v.1.15,2013-12-02 20:55:00,
2013-12-02 15:05:00,63.2,37.2,29.55,WSW,254,1.0,4.0,38,0.00,,,0.00,248,Wunderground v.1.15,2013-12-02 21:05:00,
2013-12-02 15:15:00,62.7,37.4,29.56,WSW,257,4.0,9.0,39,0.00,,,0.00,248,Wunderground v.1.15,2013-12-02 21:15:00,
2013-12-02 15:20:00,62.6,37.3,29.55,SW,227,3.0,3.0,39,0.00,,,0.00,172,Wunderground v.1.15,2013-12-02 21:20:00,
2013-12-02 15:30:00,62.1,36.8,29.55,SW,231,2.0,2.0,39,0.00,,,0.00,107,Wunderground v.1.15,2013-12-02 21:30:00,
2013-12-02 15:40:00,61.5,36.9,29.55,SW,233,1.0,1.0,40,0.00,,,0.00,120,Wunderground v.1.15,2013-12-02 21:40:00,
2013-12-02 15:50:00,61.4,36.8,29.55,SW,235,0.0,1.0,40,0.00,,,0.00,146,Wunderground v.1.15,2013-12-02 21:50:00,
2013-12-02 15:55:00,61.6,37.0,29.55,SW,235,0.0,1.0,40,0.00,,,0.00,156,Wunderground v.1.15,2013-12-02 21:55:00,
2013-12-02 16:05:00,62.2,37.6,29.55,SW,235,0.0,0.0,40,0.00,,,0.00,86,Wunderground v.1.15,2013-12-02 22:05:00,
2013-12-02 16:15:00,62.3,37.7,29.55,SW,235,0.0,0.0,40,0.00,,,0.00,39,Wunderground v.1.15,2013-12-02 22:15:00,
2013-12-02 16:20:00,62.2,38.8,29.55,SW,235,0.0,0.0,42,0.00,,,0.00,25,Wunderground v.1.15,2013-12-02 22:20:00,
2013-12-02 16:25:00,62.1,39.9,29.56,SW,235,0.0,0.0,44,0.00,,,0.00,19,Wunderground v.1.15,2013-12-02 22:25:00,
2013-12-02 16:35:00,61.4,39.3,29.56,SW,234,0.0,0.0,44,0.00,,,0.00,12,Wunderground v.1.15,2013-12-02 22:35:00,
2013-12-02 16:45:00,59.9,39.6,29.56,SW,235,0.0,0.0,47,0.00,,,0.00,9,Wunderground v.1.15,2013-12-02 22:45:00,
2013-12-02 16:50:00,59.0,38.8,29.56,SW,235,0.0,0.0,47,0.00,,,0.00,7,Wunderground v.1.15,2013-12-02 22:50:00,
2013-12-02 16:55:00,58.3,38.7,29.56,SW,234,0.0,0.0,48,0.00,,,0.00,5,Wunderground v.1.15,2013-12-02 22:55:00,
2013-12-02 17:05:00,56.5,37.0,29.56,SW,235,0.0,0.0,48,0.00,,,0.00,0,Wunderground v.1.15,2013-12-02 23:05:00,
2013-12-02 17:16:00,54.8,36.5,29.56,SW,235,0.0,0.0,50,0.00,,,0.00,0,Wunderground v.1.15,2013-12-02 23:16:00,
2013-12-02 17:25:00,52.9,35.2,29.56,SW,234,0.0,0.0,51,0.00,,,0.00,0,Wunderground v.1.15,2013-12-02 23:25:00,
2013-12-02 17:35:00,50.9,34.4,29.57,SW,235,0.0,0.0,53,0.00,,,0.00,0,Wunderground v.1.15,2013-12-02 23:35:00,
2013-12-02 17:40:00,49.8,34.3,29.57,SW,234,0.0,0.0,55,0.00,,,0.00,0,Wunderground v.1.15,2013-12-02 23:40:00,
2013-12-02 17:45:00,48.8,34.7,29.58,SW,235,0.0,0.0,58,0.00,,,0.00,0,Wunderground v.1.15,2013-12-02 23:45:00,
2013-12-02 17:55:00,47.6,34.0,29.58,SW,234,0.0,0.0,59,0.00,,,0.00,0,Wunderground v.1.15,2013-12-02 23:55:00,
2013-12-02 18:00:00,47.2,34.4,29.58,SW,235,0.0,0.0,61,0.00,,,0.00,0,Wunderground v.1.15,2013-12-03 00:00:00,
2013-12-02 18:05:00,46.7,34.8,29.58,SW,235,0.0,0.0,63,0.00,,,0.00,0,Wunderground v.1.15,2013-12-03 00:05:00,
2013-12-02 18:15:00,46.2,35.1,29.58,SW,235,0.0,0.0,65,0.00,,,0.00,0,Wunderground v.1.15,2013-12-03 00:15:00,
2013-12-02 18:20:00,46.0,35.7,29.58,SW,234,0.0,0.0,67,0.00,,,0.00,0,Wunderground v.1.15,2013-12-03 00:20:00,
2013-12-02 18:25:00,45.8,35.1,29.58,SW,235,0.0,0.0,66,0.00,,,0.00,0,Wunderground v.1.15,2013-12-03 00:25:00,
2013-12-02 18:30:00,45.6,35.3,29.58,SW,235,0.0,0.0,67,0.00,,,0.00,0,Wunderground v.1.15,2013-12-03 00:30:00,
2013-12-02 18:40:00,45.4,35.1,29.57,SW,234,0.0,0.0,67,0.00,,,0.00,0,Wunderground v.1.15,2013-12-03 00:40:00,
2013-12-02 18:45:00,45.3,35.4,29.57,SW,235,0.0,0.0,68,0.00,,,0.00,0,Wunderground v.1.15,2013-12-03 00:45:00,
2013-12-02 18:55:00,45.5,35.5,29.57,SW,235,0.0,0.0,68,0.00,,,0.00,0,Wunderground v.1.15,2013-12-03 00:55:00,
2013-12-02 19:05:00,46.1,36.1,29.57,SW,235,0.0,0.0,68,0.00,,,0.00,0,Wunderground v.1.15,2013-12-03 01:05:00,
2013-12-02 19:15:00,46.3,35.9,29.56,SW,234,0.0,0.0,67,0.00,,,0.00,0,Wunderground v.1.15,2013-12-03 01:15:00,
2013-12-02 19:25:00,46.3,35.9,29.57,SW,234,0.0,0.0,67,0.00,,,0.00,0,Wunderground v.1.15,2013-12-03 01:25:00,
2013-12-02 19:35:00,46.5,36.1,29.56,SW,234,0.0,0.0,67,0.00,,,0.00,0,Wunderground v.1.15,2013-12-03 01:35:00,
2013-12-02 19:40:00,46.5,36.1,29.56,SW,234,0.0,0.0,67,0.00,,,0.00,0,Wunderground v.1.15,2013-12-03 01:40:00,
2013-12-02 19:50:00,46.7,36.7,29.56,SW,234,0.0,0.0,68,0.00,,,0.00,0,Wunderground v.1.15,2013-12-03 01:50:00,
2013-12-02 19:55:00,46.8,36.8,29.55,SW,234,0.0,0.0,68,0.00,,,0.00,0,Wunderground v.1.15,2013-12-03 01:55:00,
2013-12-02 20:00:00,47.0,36.6,29.55,SW,230,0.0,0.0,67,0.00,,,0.00,0,Wunderground v.1.15,2013-12-03 02:00:00,
2013-12-02 20:10:00,47.2,36.8,29.55,SW,230,0.0,0.0,67,0.00,,,0.00,0,Wunderground v.1.15,2013-12-03 02:10:00,
2013-12-02 20:15:00,47.3,36.9,29.55,SW,230,0.0,0.0,67,0.00,,,0.00,0,Wunderground v.1.15,2013-12-03 02:15:00,
2013-12-02 20:20:00,47.3,36.9,29.55,SW,230,0.0,0.0,67,0.00,,,0.00,0,Wunderground v.1.15,2013-12-03 02:20:00,
2013-12-02 20:30:00,47.2,36.8,29.55,SW,230,0.0,0.0,67,0.00,,,0.00,0,Wunderground v.1.15,2013-12-03 02:30:00,
2013-12-02 20:35:00,47.0,36.6,29.55,SW,229,0.0,1.0,67,0.00,,,0.00,0,Wunderground v.1.15,2013-12-03 02:35:00,
2013-12-02 20:40:00,47.0,36.6,29.55,SW,229,0.0,0.0,67,0.00,,,0.00,0,Wunderground v.1.15,2013-12-03 02:40:00,
2013-12-02 20:45:00,47.2,37.2,29.55,SW,226,1.0,1.0,68,0.00,,,0.00,0,Wunderground v.1.15,2013-12-03 02:45:00,
2013-12-02 20:50:00,47.2,37.2,29.55,SW,226,1.0,1.0,68,0.00,,,0.00,0,Wunderground v.1.15,2013-12-03 02:50:00,
2013-12-02 21:00:00,47.4,37.4,29.55,SW,227,0.0,0.0,68,0.00,,,0.00,0,Wunderground v.1.15,2013-12-03 03:00:00,
2013-12-02 21:05:00,47.4,37.4,29.55,SW,227,0.0,0.0,68,0.00,,,0.00,0,Wunderground v.1.15,2013-12-03 03:05:00,
2013-12-02 21:15:00,47.3,37.3,29.55,SW,226,0.0,0.0,68,0.00,,,0.00,0,Wunderground v.1.15,2013-12-03 03:15:00,
2013-12-02 21:20:00,47.2,37.2,29.56,SW,227,0.0,0.0,68,0.00,,,0.00,0,Wunderground v.1.15,2013-12-03 03:20:00,
2013-12-02 21:30:00,46.8,37.2,29.56,SW,227,0.0,0.0,69,0.00,,,0.00,0,Wunderground v.1.15,2013-12-03 03:30:00,
2013-12-02 21:35:00,46.7,37.4,29.56,SW,226,0.0,0.0,70,0.00,,,0.00,0,Wunderground v.1.15,2013-12-03 03:35:00,
2013-12-02 21:40:00,46.6,37.3,29.56,SW,227,0.0,0.0,70,0.00,,,0.00,0,Wunderground v.1.15,2013-12-03 03:40:00,
2013-12-02 21:50:00,46.3,37.4,29.56,SW,227,0.0,0.0,71,0.00,,,0.00,0,Wunderground v.1.15,2013-12-03 03:50:00,
2013-12-02 21:55:00,46.1,37.2,29.56,SW,227,1.0,1.0,71,0.00,,,0.00,0,Wunderground v.1.15,2013-12-03 03:55:00,
2013-12-02 22:05:00,45.9,37.0,29.56,SW,227,0.0,0.0,71,0.00,,,0.00,0,Wunderground v.1.15,2013-12-03 04:05:00,
2013-12-02 22:15:00,45.6,37.1,29.55,SSW,203,0.0,0.0,72,0.00,,,0.00,0,Wunderground v.1.15,2013-12-03 04:15:00,
2013-12-02 22:25:00,45.4,37.2,29.55,SSW,203,0.0,0.0,73,0.00,,,0.00,0,Wunderground v.1.15,2013-12-03 04:25:00,
2013-12-02 22:30:00,45.1,37.0,29.55,SSW,203,0.0,0.0,73,0.00,,,0.00,0,Wunderground v.1.15,2013-12-03 04:30:00,
2013-12-02 22:40:00,44.6,36.8,29.56,SSW,203,0.0,0.0,74,0.00,,,0.00,0,Wunderground v.1.15,2013-12-03 04:40:00,
2013-12-02 22:45:00,44.3,36.5,29.56,SSW,203,0.0,0.0,74,0.00,,,0.00,0,Wunderground v.1.15,2013-12-03 04:45:00,
2013-12-02 22:50:00,44.1,36.7,29.55,SSW,203,0.0,0.0,75,0.00,,,0.00,0,Wunderground v.1.15,2013-12-03 04:50:00,
2013-12-02 22:55:00,44.0,36.6,29.55,SSW,203,0.0,0.0,75,0.00,,,0.00,0,Wunderground v.1.15,2013-12-03 04:55:00,
2013-12-02 23:00:00,44.0,36.9,29.55,SSW,203,0.0,0.0,76,0.00,,,0.00,0,Wunderground v.1.15,2013-12-03 05:00:00,
2013-12-02 23:05:00,43.8,36.7,29.54,SSW,203,0.0,0.0,76,0.00,,,0.00,0,Wunderground v.1.15,2013-12-03 05:05:00,
2013-12-02 23:10:00,43.7,36.6,29.54,South,187,0.0,0.0,76,0.00,,,0.00,0,Wunderground v.1.15,2013-12-03 05:10:00,
2013-12-02 23:15:00,43.5,36.8,29.54,South,187,0.0,0.0,77,0.00,,,0.00,0,Wunderground v.1.15,2013-12-03 05:15:00,
2013-12-02 23:20:00,43.4,36.7,29.55,South,187,0.0,0.0,77,0.00,,,0.00,0,Wunderground v.1.15,2013-12-03 05:20:00,
2013-12-02 23:25:00,43.3,36.6,29.54,South,187,0.0,0.0,77,0.00,,,0.00,0,Wunderground v.1.15,2013-12-03 05:25:00,
2013-12-02 23:30:00,43.2,36.5,29.54,South,187,0.0,0.0,77,0.00,,,0.00,0,Wunderground v.1.15,2013-12-03 05:30:00,
2013-12-02 23:35:00,43.1,36.4,29.54,South,187,0.0,0.0,77,0.00,,,0.00,0,Wunderground v.1.15,2013-12-03 05:35:00,
2013-12-02 23:45:00,42.8,36.4,29.54,South,187,0.0,0.0,78,0.00,,,0.00,0,Wunderground v.1.15,2013-12-03 05:45:00,
2013-12-02 23:50:00,42.7,36.3,29.54,South,187,0.0,0.0,78,0.00,,,0.00,0,Wunderground v.1.15,2013-12-03 05:50:00,
2013-12-02 23:55:00,42.6,36.5,29.54,South,187,0.0,0.0,79,0.00,,,0.00,0,Wunderground v.1.15,2013-12-03 05:55:00,